createdAt,value
2019-03-29T00:04:02.795Z,85
2019-03-29T00:09:30.854Z,84
2019-03-29T00:14:58.317Z,84
2019-03-29T00:20:26.852Z,84
2019-03-29T00:25:55.395Z,85
2019-03-29T00:31:23.930Z,85
2019-03-29T00:42:20.701Z,86
2019-03-29T00:47:48.969Z,86
2019-03-29T00:53:16.146Z,85
2019-03-29T00:58:43.641Z,86
2019-03-29T01:04:11.142Z,86
2019-03-29T01:09:38.689Z,86
2019-03-29T01:15:07.216Z,86
2019-03-29T01:20:35.718Z,87
2019-03-29T01:26:04.262Z,87
2019-03-29T01:31:32.787Z,87
2019-03-29T01:37:01.351Z,87
2019-03-29T01:42:29.842Z,88
2019-03-29T01:47:57.406Z,88
2019-03-29T01:53:24.980Z,88
2019-03-29T01:58:53.623Z,87
2019-03-29T02:04:24.674Z,87
2019-03-29T02:09:49.995Z,88
2019-03-29T02:15:18.267Z,88
2019-03-29T02:20:45.760Z,88
2019-03-29T02:26:19.455Z,89
2019-03-29T02:31:42.233Z,89
2019-03-29T02:37:09.454Z,89
2019-03-29T02:42:37.025Z,89
2019-03-29T02:48:04.567Z,90
2019-03-29T02:53:33.185Z,90
2019-03-29T02:59:00.749Z,91
2019-03-29T03:04:28.287Z,91
2019-03-29T03:09:55.893Z,91
2019-03-29T03:15:24.489Z,92
2019-03-29T03:20:53.103Z,92
2019-03-29T03:26:21.878Z,92
2019-03-29T03:31:49.366Z,92
2019-03-29T03:37:16.996Z,93
2019-03-29T03:42:45.553Z,93
2019-03-29T03:48:14.157Z,93
2019-03-29T03:53:41.803Z,93
2019-03-29T03:59:09.427Z,93
2019-03-29T04:04:38.423Z,93
2019-03-29T04:10:07.282Z,93
2019-03-29T04:15:34.344Z,93
2019-03-29T04:21:03.004Z,94
2019-03-29T04:26:30.494Z,94
2019-03-29T04:31:59.173Z,94
2019-03-29T04:37:27.763Z,94
2019-03-29T04:42:55.454Z,94
2019-03-29T04:48:23.334Z,94
2019-03-29T04:53:51.784Z,94
2019-03-29T04:59:20.434Z,95
2019-03-29T05:04:48.080Z,95
2019-03-29T05:10:21.329Z,95
2019-03-29T05:15:44.294Z,95
2019-03-29T05:21:11.892Z,95
2019-03-29T05:26:40.545Z,95
2019-03-29T05:32:10.816Z,95
2019-03-29T05:37:36.834Z,95
2019-03-29T05:43:04.479Z,95
2019-03-29T05:48:32.120Z,95
2019-03-29T05:54:00.806Z,95
2019-03-29T05:59:28.422Z,94
2019-03-29T06:04:56.197Z,94
2019-03-29T06:10:27.183Z,94
2019-03-29T06:15:52.422Z,94
2019-03-29T06:21:20.275Z,94
2019-03-29T06:26:48.884Z,93
2019-03-29T06:32:16.528Z,93
2019-03-29T06:37:44.223Z,92
2019-03-29T06:43:11.851Z,92
2019-03-29T06:48:40.645Z,92
2019-03-29T06:54:08.294Z,90
2019-03-29T06:59:36.023Z,90
2019-03-29T07:05:03.750Z,90
2019-03-29T07:10:31.424Z,89
2019-03-29T07:15:59.156Z,89
2019-03-29T07:21:26.848Z,89
2019-03-29T07:26:55.561Z,88
2019-03-29T07:32:23.344Z,87
2019-03-29T07:37:51.040Z,87
2019-03-29T07:43:19.859Z,87
2019-03-29T07:48:48.611Z,87
2019-03-29T07:54:16.402Z,85
2019-03-29T07:59:44.078Z,85
2019-03-29T08:05:12.867Z,85
2019-03-29T08:10:43.352Z,84
2019-03-29T08:16:09.441Z,84
2019-03-29T08:21:38.283Z,84
2019-03-29T08:27:06.509Z,83
2019-03-29T08:32:34.883Z,83
2019-03-29T08:38:06.095Z,83
2019-03-29T08:43:31.541Z,81
2019-03-29T08:48:59.362Z,81
2019-03-29T08:54:28.521Z,82
2019-03-29T08:59:57.187Z,81
2019-03-29T09:05:25.168Z,81
2019-03-29T09:10:54.410Z,80
2019-03-29T09:16:21.914Z,79
2019-03-29T09:21:50.761Z,79
2019-03-29T09:27:19.500Z,79
2019-03-29T09:38:15.593Z,78
2019-03-29T09:43:44.349Z,77
2019-03-29T09:49:13.128Z,77
2019-03-29T09:54:42.041Z,76
2019-03-29T10:00:18.984Z,76
2019-03-29T10:05:37.887Z,74
2019-03-29T10:11:05.891Z,75
2019-03-29T10:16:34.954Z,75
2019-03-29T10:22:04.007Z,75
2019-03-29T10:27:33.499Z,76
2019-03-29T10:33:00.833Z,76
2019-03-29T10:38:28.803Z,76
2019-03-29T10:43:57.768Z,76
2019-03-29T10:49:25.826Z,77
2019-03-29T10:54:54.761Z,77
2019-03-29T11:00:23.710Z,76
2019-03-29T11:05:52.042Z,77
2019-03-29T11:11:20.602Z,77
2019-03-29T11:16:49.526Z,78
2019-03-29T11:22:17.537Z,75
2019-03-29T11:27:45.531Z,74
2019-03-29T11:33:13.537Z,74
2019-03-29T11:38:42.505Z,75
2019-03-29T11:44:11.532Z,75
2019-03-29T11:49:39.599Z,73
2019-03-29T11:55:07.591Z,73
2019-03-29T12:00:36.750Z,74
2019-03-29T12:06:04.742Z,74
2019-03-29T12:11:32.644Z,74
2019-03-29T12:17:00.711Z,75
2019-03-29T12:22:28.656Z,76
2019-03-29T12:27:56.620Z,76
2019-03-29T12:33:24.640Z,75
2019-03-29T12:38:52.718Z,74
2019-03-29T12:44:20.765Z,75
2019-03-29T12:49:48.837Z,74
2019-03-29T12:55:16.770Z,75
2019-03-29T13:00:44.835Z,73
2019-03-29T13:06:13.855Z,75
2019-03-29T13:11:42.240Z,75
2019-03-29T13:17:10.158Z,74
2019-03-29T13:22:38.079Z,72
2019-03-29T13:28:07.197Z,73
2019-03-29T13:33:35.317Z,73
2019-03-29T13:39:04.351Z,72
2019-03-29T13:44:33.531Z,73
2019-03-29T13:50:02.568Z,72
2019-03-29T13:55:30.650Z,72
2019-03-29T14:00:59.779Z,73
2019-03-29T14:06:28.796Z,74
2019-03-29T14:11:57.877Z,75
2019-03-29T14:17:26.985Z,72
2019-03-29T14:22:55.032Z,74
2019-03-29T14:28:23.047Z,74
2019-03-29T14:33:52.156Z,75
2019-03-29T14:39:21.406Z,74
2019-03-29T14:44:52.512Z,73
2019-03-29T14:50:18.413Z,73
2019-03-29T14:55:47.434Z,73
2019-03-29T15:01:15.506Z,73
2019-03-29T15:06:43.579Z,73
2019-03-29T15:12:18.857Z,72
2019-03-29T15:17:41.049Z,72
2019-03-29T15:23:08.730Z,73
2019-03-29T15:28:37.524Z,71
2019-03-29T15:34:04.896Z,71
2019-03-29T15:39:33.030Z,70
2019-03-29T15:45:02.139Z,71
2019-03-29T15:50:31.239Z,71
2019-03-29T15:55:59.154Z,71
2019-03-29T16:01:28.245Z,70
2019-03-29T16:06:57.471Z,71
2019-03-29T16:12:25.340Z,72
2019-03-29T16:17:53.398Z,71
2019-03-29T16:23:21.401Z,71
2019-03-29T16:34:19.440Z,72
2019-03-29T16:39:47.453Z,71
2019-03-29T16:45:16.470Z,72
2019-03-29T16:50:45.334Z,73
2019-03-29T16:56:14.234Z,73
2019-03-29T17:01:42.210Z,72
2019-03-29T17:07:15.586Z,72
2019-03-29T17:12:38.060Z,73
2019-03-29T17:18:06.017Z,74
2019-03-29T17:23:34.912Z,74
2019-03-29T17:34:31.752Z,74
2019-03-29T17:39:59.745Z,74
2019-03-29T17:45:27.508Z,74
2019-03-29T17:50:56.383Z,74
2019-03-29T17:56:24.257Z,75
2019-03-29T18:02:09.017Z,75
2019-03-29T18:07:20.996Z,75
2019-03-29T18:12:49.853Z,76
2019-03-29T18:18:18.720Z,76
2019-03-29T18:23:46.487Z,76
2019-03-29T18:29:15.291Z,77
2019-03-29T18:34:44.081Z,77
2019-03-29T18:40:12.924Z,77
2019-03-29T18:45:41.990Z,77
2019-03-29T18:51:09.493Z,77
2019-03-29T18:56:38.373Z,77
2019-03-29T19:02:07.177Z,77
2019-03-29T19:07:34.854Z,77
2019-03-29T19:13:02.700Z,78
2019-03-29T19:18:30.383Z,78
2019-03-29T19:23:59.114Z,78
2019-03-29T19:34:54.658Z,78
2019-03-29T19:40:23.369Z,78
2019-03-29T19:45:52.216Z,78
2019-03-29T19:51:20.891Z,79
2019-03-29T19:56:48.571Z,79
2019-03-29T20:02:16.292Z,79
2019-03-29T20:07:45.028Z,80
2019-03-29T20:13:14.172Z,79
2019-03-29T20:18:41.469Z,79
2019-03-29T20:24:09.240Z,79
2019-03-29T20:29:36.898Z,79
2019-03-29T20:35:05.597Z,79
2019-03-29T20:40:34.265Z,79
2019-03-29T20:46:01.873Z,80
2019-03-29T20:51:29.567Z,79
2019-03-29T21:02:24.949Z,79
2019-03-29T21:07:55.019Z,79
2019-03-29T21:13:21.297Z,79
2019-03-29T21:18:49.365Z,79
2019-03-29T21:24:17.718Z,79
2019-03-29T21:29:46.353Z,79
2019-03-29T21:35:14.910Z,79
2019-03-29T21:40:42.557Z,79
2019-03-29T21:46:11.225Z,79
2019-03-29T21:51:39.796Z,79
2019-03-29T21:57:09.040Z,79
2019-03-29T22:02:37.007Z,79
2019-03-29T22:08:05.677Z,80
2019-03-29T22:13:33.175Z,79
2019-03-29T22:19:01.937Z,80
2019-03-29T22:24:29.393Z,79
2019-03-29T22:29:56.995Z,79
2019-03-29T22:35:24.562Z,79
2019-03-29T22:40:53.174Z,78
2019-03-29T22:46:22.084Z,78
2019-03-29T22:51:49.373Z,79
2019-03-29T22:57:16.840Z,79
2019-03-29T23:02:44.441Z,79
2019-03-29T23:08:13.438Z,79
2019-03-29T23:13:40.507Z,79
2019-03-29T23:19:09.127Z,79
2019-03-29T23:24:37.540Z,79
2019-03-29T23:30:05.300Z,79
2019-03-29T23:35:32.652Z,79
2019-03-29T23:41:01.171Z,79
2019-03-29T23:46:28.640Z,79
2019-03-29T23:51:57.112Z,79
2019-03-29T23:57:25.640Z,79
